createdAt,value
2022-08-29T18:06:32.417Z,23.10
2022-08-29T18:09:03.828Z,22.60
2022-08-29T21:39:13.461Z,15.80
2022-08-29T21:41:49.366Z,15.60
2022-08-29T21:44:20.201Z,15.40
2022-08-29T21:46:54.418Z,15.40
2022-08-29T21:49:21.803Z,15.40
2022-08-29T21:54:21.938Z,15.40
2022-08-29T21:56:50.100Z,15.30
2022-08-29T21:59:17.773Z,15.40
2022-08-29T22:01:47.261Z,15.70
2022-08-29T22:04:28.548Z,15.60
2022-08-29T22:06:57.314Z,15.70
2022-08-29T22:09:25.637Z,15.60
2022-08-29T22:11:52.356Z,15.40
2022-08-29T22:14:18.993Z,15.60
2022-08-29T22:16:45.622Z,15.60
2022-08-29T22:19:13.955Z,15.60
2022-08-29T22:21:42.106Z,16.10
2022-08-29T22:26:37.639Z,15.00
2022-08-29T22:29:05.544Z,14.80
2022-08-29T22:31:32.438Z,14.70
2022-08-29T22:33:59.553Z,14.50
2022-08-29T22:36:26.654Z,14.40
2022-08-29T22:38:56.451Z,14.30
2022-08-29T22:41:23.684Z,14.30
2022-08-29T22:44:04.699Z,14.30
2022-08-29T22:46:37.894Z,14.50
2022-08-29T22:49:04.552Z,14.60
2022-08-29T22:51:31.231Z,14.60
2022-08-29T22:54:16.696Z,15.50
2022-08-29T22:56:44.994Z,15.10
2022-08-29T23:01:39.645Z,15.10
2022-08-29T23:04:07.573Z,15.10
2022-08-29T23:06:34.376Z,15.00
2022-08-29T23:09:01.039Z,14.80
2022-08-29T23:11:28.057Z,15.10
2022-08-29T23:13:55.813Z,14.90
2022-08-29T23:16:23.174Z,14.70
2022-08-29T23:18:49.897Z,14.70
2022-08-29T23:21:16.639Z,14.70
2022-08-29T23:23:45.211Z,14.50
2022-08-29T23:26:12.030Z,15.10
2022-08-29T23:28:38.704Z,14.60
2022-08-29T23:31:05.434Z,14.50
2022-08-29T23:33:32.115Z,14.60
2022-08-29T23:35:58.691Z,14.40
2022-08-29T23:38:25.818Z,14.40
2022-08-29T23:40:52.505Z,14.40
2022-08-29T23:43:21.057Z,14.40
2022-08-29T23:45:51.960Z,14.30
2022-08-29T23:48:18.747Z,14.20
2022-08-29T23:50:51.769Z,14.00
2022-08-29T23:53:18.971Z,15.10
2022-08-29T23:55:46.218Z,15.10
2022-08-29T23:58:13.147Z,14.00
